sensor_id;sensor_type;location;lat;lon;timestamp;P1;durP1;ratioP1;P2;durP2;ratioP2
58528;SDS011;44322;52.968;5.816;2023-02-28T00:00:25;8.38;;;4.47;;
58528;SDS011;44322;52.968;5.816;2023-02-28T00:02:51;7.30;;;4.25;;
58528;SDS011;44322;52.968;5.816;2023-02-28T00:05:18;7.72;;;3.60;;
58528;SDS011;44322;52.968;5.816;2023-02-28T00:07:45;6.65;;;3.60;;
58528;SDS011;44322;52.968;5.816;2023-02-28T00:10:12;7.30;;;3.85;;
58528;SDS011;44322;52.968;5.816;2023-02-28T00:12:38;11.45;;;4.45;;
58528;SDS011;44322;52.968;5.816;2023-02-28T00:15:05;9.73;;;4.30;;
58528;SDS011;44322;52.968;5.816;2023-02-28T00:17:31;9.18;;;3.65;;
58528;SDS011;44322;52.968;5.816;2023-02-28T00:19:57;9.52;;;4.05;;
58528;SDS011;44322;52.968;5.816;2023-02-28T00:22:35;7.20;;;3.65;;
58528;SDS011;44322;52.968;5.816;2023-02-28T00:25:02;8.82;;;3.55;;
58528;SDS011;44322;52.968;5.816;2023-02-28T00:27:28;5.50;;;4.07;;
58528;SDS011;44322;52.968;5.816;2023-02-28T00:29:54;8.50;;;4.15;;
58528;SDS011;44322;52.968;5.816;2023-02-28T00:32:20;7.32;;;3.70;;
58528;SDS011;44322;52.968;5.816;2023-02-28T00:34:45;11.40;;;3.75;;
58528;SDS011;44322;52.968;5.816;2023-02-28T00:37:11;7.88;;;4.40;;
58528;SDS011;44322;52.968;5.816;2023-02-28T00:39:37;7.72;;;4.00;;
58528;SDS011;44322;52.968;5.816;2023-02-28T00:42:04;7.18;;;4.05;;
58528;SDS011;44322;52.968;5.816;2023-02-28T00:44:30;7.80;;;4.20;;
58528;SDS011;44322;52.968;5.816;2023-02-28T00:46:56;6.28;;;3.78;;
58528;SDS011;44322;52.968;5.816;2023-02-28T00:49:24;6.80;;;3.80;;
58528;SDS011;44322;52.968;5.816;2023-02-28T00:51:50;8.55;;;4.07;;
58528;SDS011;44322;52.968;5.816;2023-02-28T00:54:16;9.63;;;4.00;;
58528;SDS011;44322;52.968;5.816;2023-02-28T00:56:41;5.70;;;3.17;;
58528;SDS011;44322;52.968;5.816;2023-02-28T00:59:07;9.05;;;4.22;;
58528;SDS011;44322;52.968;5.816;2023-02-28T01:01:33;6.32;;;3.92;;
58528;SDS011;44322;52.968;5.816;2023-02-28T01:03:59;10.25;;;4.25;;
58528;SDS011;44322;52.968;5.816;2023-02-28T01:06:25;8.13;;;4.13;;
58528;SDS011;44322;52.968;5.816;2023-02-28T01:08:51;10.70;;;4.60;;
58528;SDS011;44322;52.968;5.816;2023-02-28T01:11:17;8.27;;;4.20;;
58528;SDS011;44322;52.968;5.816;2023-02-28T01:13:43;9.50;;;4.20;;
58528;SDS011;44322;52.968;5.816;2023-02-28T01:16:11;8.95;;;4.53;;
58528;SDS011;44322;52.968;5.816;2023-02-28T01:18:37;11.65;;;4.55;;
58528;SDS011;44322;52.968;5.816;2023-02-28T01:21:04;8.27;;;4.55;;
58528;SDS011;44322;52.968;5.816;2023-02-28T01:23:31;11.07;;;4.17;;
58528;SDS011;44322;52.968;5.816;2023-02-28T01:25:57;10.65;;;4.88;;
58528;SDS011;44322;52.968;5.816;2023-02-28T01:28:22;10.80;;;4.60;;
58528;SDS011;44322;52.968;5.816;2023-02-28T01:30:49;7.60;;;4.07;;
58528;SDS011;44322;52.968;5.816;2023-02-28T01:33:15;6.13;;;3.80;;
58528;SDS011;44322;52.968;5.816;2023-02-28T01:35:41;8.23;;;4.22;;
58528;SDS011;44322;52.968;5.816;2023-02-28T01:38:07;7.88;;;4.70;;
58528;SDS011;44322;52.968;5.816;2023-02-28T01:40:33;8.77;;;4.53;;
58528;SDS011;44322;52.968;5.816;2023-02-28T01:42:58;6.75;;;4.40;;
58528;SDS011;44322;52.968;5.816;2023-02-28T01:47:52;12.55;;;4.75;;
58528;SDS011;44322;52.968;5.816;2023-02-28T01:50:23;9.63;;;4.70;;
58528;SDS011;44322;52.968;5.816;2023-02-28T01:52:50;12.23;;;5.03;;
58528;SDS011;44322;52.968;5.816;2023-02-28T01:55:18;8.65;;;4.30;;
58528;SDS011;44322;52.968;5.816;2023-02-28T01:57:46;8.57;;;4.67;;
58528;SDS011;44322;52.968;5.816;2023-02-28T02:00:16;10.57;;;4.78;;
58528;SDS011;44322;52.968;5.816;2023-02-28T02:02:46;6.93;;;4.07;;
58528;SDS011;44322;52.968;5.816;2023-02-28T02:07:45;8.77;;;4.22;;
58528;SDS011;44322;52.968;5.816;2023-02-28T02:23:56;9.52;;;4.50;;
58528;SDS011;44322;52.968;5.816;2023-02-28T02:34:39;7.53;;;4.20;;
58528;SDS011;44322;52.968;5.816;2023-02-28T02:37:35;7.43;;;4.05;;
58528;SDS011;44322;52.968;5.816;2023-02-28T02:45:26;8.68;;;4.30;;
58528;SDS011;44322;52.968;5.816;2023-02-28T02:47:53;5.70;;;4.10;;
58528;SDS011;44322;52.968;5.816;2023-02-28T02:50:53;9.07;;;4.40;;
58528;SDS011;44322;52.968;5.816;2023-02-28T02:53:13;8.30;;;4.13;;
58528;SDS011;44322;52.968;5.816;2023-02-28T02:55:42;9.05;;;3.80;;
58528;SDS011;44322;52.968;5.816;2023-02-28T02:58:14;7.68;;;4.10;;
58528;SDS011;44322;52.968;5.816;2023-02-28T03:00:43;9.07;;;4.72;;
58528;SDS011;44322;52.968;5.816;2023-02-28T03:03:12;7.97;;;4.22;;
58528;SDS011;44322;52.968;5.816;2023-02-28T03:05:47;12.52;;;4.90;;
58528;SDS011;44322;52.968;5.816;2023-02-28T03:08:15;12.05;;;4.88;;
58528;SDS011;44322;52.968;5.816;2023-02-28T03:10:42;8.35;;;4.53;;
58528;SDS011;44322;52.968;5.816;2023-02-28T03:13:22;6.60;;;4.68;;
58528;SDS011;44322;52.968;5.816;2023-02-28T03:16:21;11.27;;;4.50;;
58528;SDS011;44322;52.968;5.816;2023-02-28T03:21:38;8.15;;;4.28;;
58528;SDS011;44322;52.968;5.816;2023-02-28T03:24:17;7.97;;;3.60;;
58528;SDS011;44322;52.968;5.816;2023-02-28T03:26:50;9.90;;;4.28;;
58528;SDS011;44322;52.968;5.816;2023-02-28T03:29:22;12.43;;;4.80;;
58528;SDS011;44322;52.968;5.816;2023-02-28T03:32:38;8.48;;;4.15;;
58528;SDS011;44322;52.968;5.816;2023-02-28T03:34:41;9.93;;;4.10;;
58528;SDS011;44322;52.968;5.816;2023-02-28T03:37:29;6.05;;;3.83;;
58528;SDS011;44322;52.968;5.816;2023-02-28T03:39:59;5.90;;;4.00;;
58528;SDS011;44322;52.968;5.816;2023-02-28T03:42:27;8.82;;;4.35;;
58528;SDS011;44322;52.968;5.816;2023-02-28T03:47:54;10.35;;;4.28;;
58528;SDS011;44322;52.968;5.816;2023-02-28T03:50:20;6.22;;;3.40;;
58528;SDS011;44322;52.968;5.816;2023-02-28T03:53:08;9.20;;;4.30;;
58528;SDS011;44322;52.968;5.816;2023-02-28T03:55:39;10.10;;;4.70;;
58528;SDS011;44322;52.968;5.816;2023-02-28T03:58:32;6.68;;;4.35;;
58528;SDS011;44322;52.968;5.816;2023-02-28T04:01:06;6.43;;;4.20;;
58528;SDS011;44322;52.968;5.816;2023-02-28T04:03:34;7.72;;;4.05;;
58528;SDS011;44322;52.968;5.816;2023-02-28T04:06:03;6.20;;;3.95;;
58528;SDS011;44322;52.968;5.816;2023-02-28T04:08:29;10.57;;;4.35;;
58528;SDS011;44322;52.968;5.816;2023-02-28T04:11:03;5.97;;;4.07;;
58528;SDS011;44322;52.968;5.816;2023-02-28T04:13:37;8.20;;;4.03;;
58528;SDS011;44322;52.968;5.816;2023-02-28T04:16:06;7.50;;;4.30;;
58528;SDS011;44322;52.968;5.816;2023-02-28T04:18:40;9.35;;;4.45;;
58528;SDS011;44322;52.968;5.816;2023-02-28T04:21:06;7.03;;;3.90;;
58528;SDS011;44322;52.968;5.816;2023-02-28T04:23:32;8.98;;;3.70;;
58528;SDS011;44322;52.968;5.816;2023-02-28T04:25:58;5.15;;;3.65;;
58528;SDS011;44322;52.968;5.816;2023-02-28T04:28:24;6.78;;;3.70;;
58528;SDS011;44322;52.968;5.816;2023-02-28T04:30:56;7.18;;;2.90;;
58528;SDS011;44322;52.968;5.816;2023-02-28T04:33:23;5.88;;;3.30;;
58528;SDS011;44322;52.968;5.816;2023-02-28T04:35:57;7.40;;;3.42;;
58528;SDS011;44322;52.968;5.816;2023-02-28T04:38:23;6.93;;;3.95;;
58528;SDS011;44322;52.968;5.816;2023-02-28T04:40:49;7.70;;;4.80;;
58528;SDS011;44322;52.968;5.816;2023-02-28T04:43:14;8.88;;;5.10;;
58528;SDS011;44322;52.968;5.816;2023-02-28T04:45:40;9.50;;;5.57;;
58528;SDS011;44322;52.968;5.816;2023-02-28T04:48:05;8.05;;;6.45;;
58528;SDS011;44322;52.968;5.816;2023-02-28T04:50:31;9.98;;;6.57;;
58528;SDS011;44322;52.968;5.816;2023-02-28T04:52:57;11.30;;;6.43;;
58528;SDS011;44322;52.968;5.816;2023-02-28T04:55:22;9.38;;;7.00;;
58528;SDS011;44322;52.968;5.816;2023-02-28T04:57:48;7.68;;;6.28;;
58528;SDS011;44322;52.968;5.816;2023-02-28T05:00:13;7.97;;;6.15;;
58528;SDS011;44322;52.968;5.816;2023-02-28T05:02:41;9.55;;;5.43;;
58528;SDS011;44322;52.968;5.816;2023-02-28T05:05:07;8.63;;;5.68;;
58528;SDS011;44322;52.968;5.816;2023-02-28T05:07:33;9.60;;;6.20;;
58528;SDS011;44322;52.968;5.816;2023-02-28T05:09:59;7.90;;;5.60;;
58528;SDS011;44322;52.968;5.816;2023-02-28T05:12:25;9.77;;;6.00;;
58528;SDS011;44322;52.968;5.816;2023-02-28T05:14:50;7.13;;;5.40;;
58528;SDS011;44322;52.968;5.816;2023-02-28T05:17:16;8.95;;;5.35;;
58528;SDS011;44322;52.968;5.816;2023-02-28T05:19:41;8.55;;;6.03;;
58528;SDS011;44322;52.968;5.816;2023-02-28T05:22:12;9.80;;;5.93;;
58528;SDS011;44322;52.968;5.816;2023-02-28T05:24:39;7.90;;;5.78;;
58528;SDS011;44322;52.968;5.816;2023-02-28T05:27:05;8.95;;;5.70;;
58528;SDS011;44322;52.968;5.816;2023-02-28T05:29:30;9.77;;;6.28;;
58528;SDS011;44322;52.968;5.816;2023-02-28T05:31:56;9.48;;;5.78;;
58528;SDS011;44322;52.968;5.816;2023-02-28T05:34:21;9.98;;;6.93;;
58528;SDS011;44322;52.968;5.816;2023-02-28T05:36:47;10.43;;;7.05;;
58528;SDS011;44322;52.968;5.816;2023-02-28T05:39:13;9.43;;;7.47;;
58528;SDS011;44322;52.968;5.816;2023-02-28T05:41:39;11.20;;;8.82;;
58528;SDS011;44322;52.968;5.816;2023-02-28T05:44:09;15.82;;;9.45;;
58528;SDS011;44322;52.968;5.816;2023-02-28T05:46:34;13.10;;;9.38;;
58528;SDS011;44322;52.968;5.816;2023-02-28T05:49:00;12.43;;;8.52;;
58528;SDS011;44322;52.968;5.816;2023-02-28T05:51:27;14.95;;;9.13;;
58528;SDS011;44322;52.968;5.816;2023-02-28T05:53:53;14.57;;;9.40;;
58528;SDS011;44322;52.968;5.816;2023-02-28T05:56:19;14.32;;;9.60;;
58528;SDS011;44322;52.968;5.816;2023-02-28T05:58:44;14.60;;;9.07;;
58528;SDS011;44322;52.968;5.816;2023-02-28T06:04:13;14.95;;;9.90;;
58528;SDS011;44322;52.968;5.816;2023-02-28T06:06:49;15.13;;;9.45;;
58528;SDS011;44322;52.968;5.816;2023-02-28T06:09:16;14.60;;;9.75;;
58528;SDS011;44322;52.968;5.816;2023-02-28T06:11:46;14.38;;;9.73;;
58528;SDS011;44322;52.968;5.816;2023-02-28T06:14:14;15.63;;;10.18;;
58528;SDS011;44322;52.968;5.816;2023-02-28T06:16:41;16.40;;;9.95;;
58528;SDS011;44322;52.968;5.816;2023-02-28T06:19:08;14.02;;;10.43;;
58528;SDS011;44322;52.968;5.816;2023-02-28T06:21:33;14.35;;;10.82;;
58528;SDS011;44322;52.968;5.816;2023-02-28T06:23:59;16.42;;;10.55;;
58528;SDS011;44322;52.968;5.816;2023-02-28T06:26:25;15.88;;;10.82;;
58528;SDS011;44322;52.968;5.816;2023-02-28T06:28:51;16.67;;;10.73;;
58528;SDS011;44322;52.968;5.816;2023-02-28T06:31:17;16.70;;;11.10;;
58528;SDS011;44322;52.968;5.816;2023-02-28T06:33:43;17.63;;;11.95;;
58528;SDS011;44322;52.968;5.816;2023-02-28T06:36:10;17.40;;;12.20;;
58528;SDS011;44322;52.968;5.816;2023-02-28T06:38:37;18.08;;;12.45;;
58528;SDS011;44322;52.968;5.816;2023-02-28T06:46:41;19.13;;;12.27;;
58528;SDS011;44322;52.968;5.816;2023-02-28T06:49:07;19.05;;;12.90;;
58528;SDS011;44322;52.968;5.816;2023-02-28T06:51:37;19.10;;;12.45;;
58528;SDS011;44322;52.968;5.816;2023-02-28T06:54:04;22.00;;;13.15;;
58528;SDS011;44322;52.968;5.816;2023-02-28T06:56:30;22.13;;;14.20;;
58528;SDS011;44322;52.968;5.816;2023-02-28T06:58:56;21.50;;;14.73;;
58528;SDS011;44322;52.968;5.816;2023-02-28T07:01:22;23.48;;;14.75;;
58528;SDS011;44322;52.968;5.816;2023-02-28T07:03:50;20.50;;;13.80;;
58528;SDS011;44322;52.968;5.816;2023-02-28T07:06:18;21.77;;;13.75;;
58528;SDS011;44322;52.968;5.816;2023-02-28T07:08:44;22.75;;;13.75;;
58528;SDS011;44322;52.968;5.816;2023-02-28T07:11:10;21.77;;;13.48;;
58528;SDS011;44322;52.968;5.816;2023-02-28T07:13:36;21.38;;;14.02;;
58528;SDS011;44322;52.968;5.816;2023-02-28T07:16:03;22.52;;;13.50;;
58528;SDS011;44322;52.968;5.816;2023-02-28T07:18:31;22.55;;;14.13;;
58528;SDS011;44322;52.968;5.816;2023-02-28T07:20:57;22.33;;;14.27;;
58528;SDS011;44322;52.968;5.816;2023-02-28T07:43:20;24.63;;;14.95;;
58528;SDS011;44322;52.968;5.816;2023-02-28T07:45:46;24.67;;;16.65;;
58528;SDS011;44322;52.968;5.816;2023-02-28T07:56:59;25.98;;;16.25;;
58528;SDS011;44322;52.968;5.816;2023-02-28T07:59:33;27.35;;;17.15;;
58528;SDS011;44322;52.968;5.816;2023-02-28T08:04:59;25.88;;;16.10;;
58528;SDS011;44322;52.968;5.816;2023-02-28T08:10:53;22.38;;;14.43;;
58528;SDS011;44322;52.968;5.816;2023-02-28T08:13:23;22.17;;;13.55;;
58528;SDS011;44322;52.968;5.816;2023-02-28T08:15:57;21.02;;;13.48;;
58528;SDS011;44322;52.968;5.816;2023-02-28T08:18:30;21.92;;;13.32;;
58528;SDS011;44322;52.968;5.816;2023-02-28T08:23:52;22.02;;;13.88;;
58528;SDS011;44322;52.968;5.816;2023-02-28T08:26:19;21.08;;;14.38;;
58528;SDS011;44322;52.968;5.816;2023-02-28T08:28:48;21.75;;;14.05;;
58528;SDS011;44322;52.968;5.816;2023-02-28T08:31:16;25.73;;;14.75;;
58528;SDS011;44322;52.968;5.816;2023-02-28T08:33:56;20.25;;;14.00;;
58528;SDS011;44322;52.968;5.816;2023-02-28T08:36:24;20.42;;;12.88;;
58528;SDS011;44322;52.968;5.816;2023-02-28T08:38:51;18.33;;;12.65;;
58528;SDS011;44322;52.968;5.816;2023-02-28T08:41:17;17.65;;;12.77;;
58528;SDS011;44322;52.968;5.816;2023-02-28T08:43:42;17.17;;;12.68;;
58528;SDS011;44322;52.968;5.816;2023-02-28T08:46:11;15.25;;;12.20;;
58528;SDS011;44322;52.968;5.816;2023-02-28T08:48:38;18.52;;;12.25;;
58528;SDS011;44322;52.968;5.816;2023-02-28T08:53:32;18.20;;;12.73;;
58528;SDS011;44322;52.968;5.816;2023-02-28T08:56:02;18.27;;;13.23;;
58528;SDS011;44322;52.968;5.816;2023-02-28T08:58:30;17.08;;;13.35;;
58528;SDS011;44322;52.968;5.816;2023-02-28T09:00:56;22.30;;;14.18;;
58528;SDS011;44322;52.968;5.816;2023-02-28T09:03:22;22.30;;;14.23;;
58528;SDS011;44322;52.968;5.816;2023-02-28T09:05:52;17.58;;;12.75;;
58528;SDS011;44322;52.968;5.816;2023-02-28T09:08:21;17.75;;;12.73;;
58528;SDS011;44322;52.968;5.816;2023-02-28T09:10:48;19.35;;;12.68;;
58528;SDS011;44322;52.968;5.816;2023-02-28T09:13:14;16.48;;;11.75;;
58528;SDS011;44322;52.968;5.816;2023-02-28T09:15:39;15.93;;;11.77;;
58528;SDS011;44322;52.968;5.816;2023-02-28T09:18:20;13.98;;;11.20;;
58528;SDS011;44322;52.968;5.816;2023-02-28T09:20:46;14.40;;;10.80;;
58528;SDS011;44322;52.968;5.816;2023-02-28T09:23:11;16.23;;;11.77;;
58528;SDS011;44322;52.968;5.816;2023-02-28T09:25:38;14.95;;;10.60;;
58528;SDS011;44322;52.968;5.816;2023-02-28T09:28:13;14.63;;;10.60;;
58528;SDS011;44322;52.968;5.816;2023-02-28T09:30:41;16.10;;;11.82;;
58528;SDS011;44322;52.968;5.816;2023-02-28T09:33:07;14.15;;;11.55;;
58528;SDS011;44322;52.968;5.816;2023-02-28T09:35:33;15.63;;;11.25;;
58528;SDS011;44322;52.968;5.816;2023-02-28T09:37:59;15.55;;;11.60;;
58528;SDS011;44322;52.968;5.816;2023-02-28T09:40:28;12.57;;;10.77;;
58528;SDS011;44322;52.968;5.816;2023-02-28T09:42:59;14.45;;;10.95;;
58528;SDS011;44322;52.968;5.816;2023-02-28T09:45:29;16.25;;;11.05;;
58528;SDS011;44322;52.968;5.816;2023-02-28T09:48:31;14.88;;;10.93;;
58528;SDS011;44322;52.968;5.816;2023-02-28T09:50:52;17.05;;;11.48;;
58528;SDS011;44322;52.968;5.816;2023-02-28T09:53:22;13.65;;;10.77;;
58528;SDS011;44322;52.968;5.816;2023-02-28T09:55:57;16.58;;;11.60;;
58528;SDS011;44322;52.968;5.816;2023-02-28T10:06:54;14.73;;;10.15;;
58528;SDS011;44322;52.968;5.816;2023-02-28T10:09:28;15.45;;;10.70;;
58528;SDS011;44322;52.968;5.816;2023-02-28T10:12:00;15.18;;;11.57;;
58528;SDS011;44322;52.968;5.816;2023-02-28T10:14:29;13.02;;;9.98;;
58528;SDS011;44322;52.968;5.816;2023-02-28T10:22:19;12.55;;;8.32;;
58528;SDS011;44322;52.968;5.816;2023-02-28T10:24:49;12.80;;;8.60;;
58528;SDS011;44322;52.968;5.816;2023-02-28T10:27:24;13.07;;;8.50;;
58528;SDS011;44322;52.968;5.816;2023-02-28T10:30:05;18.58;;;9.30;;
58528;SDS011;44322;52.968;5.816;2023-02-28T10:43:27;9.65;;;6.85;;
58528;SDS011;44322;52.968;5.816;2023-02-28T10:48:33;22.08;;;12.48;;
58528;SDS011;44322;52.968;5.816;2023-02-28T10:58:44;7.30;;;4.40;;
58528;SDS011;44322;52.968;5.816;2023-02-28T11:01:39;7.40;;;4.60;;
58528;SDS011;44322;52.968;5.816;2023-02-28T11:52:00;12.75;;;7.65;;
58528;SDS011;44322;52.968;5.816;2023-02-28T11:56:44;13.50;;;8.27;;
58528;SDS011;44322;52.968;5.816;2023-02-28T12:11:34;23.33;;;12.57;;
58528;SDS011;44322;52.968;5.816;2023-02-28T12:19:25;16.63;;;10.20;;
58528;SDS011;44322;52.968;5.816;2023-02-28T12:22:12;16.98;;;11.15;;
58528;SDS011;44322;52.968;5.816;2023-02-28T12:27:33;24.08;;;12.68;;
58528;SDS011;44322;52.968;5.816;2023-02-28T12:30:14;21.90;;;12.77;;
58528;SDS011;44322;52.968;5.816;2023-02-28T12:32:44;20.38;;;10.45;;
58528;SDS011;44322;52.968;5.816;2023-02-28T12:35:13;18.52;;;10.85;;
58528;SDS011;44322;52.968;5.816;2023-02-28T12:37:47;23.00;;;12.00;;
58528;SDS011;44322;52.968;5.816;2023-02-28T12:40:23;16.20;;;10.32;;
58528;SDS011;44322;52.968;5.816;2023-02-28T13:18:46;8.65;;;5.18;;
58528;SDS011;44322;52.968;5.816;2023-02-28T13:21:30;9.00;;;5.65;;
58528;SDS011;44322;52.968;5.816;2023-02-28T13:24:00;8.02;;;5.78;;
58528;SDS011;44322;52.968;5.816;2023-02-28T13:31:23;10.73;;;6.80;;
58528;SDS011;44322;52.968;5.816;2023-02-28T13:36:28;10.43;;;7.50;;
58528;SDS011;44322;52.968;5.816;2023-02-28T13:38:58;9.43;;;6.82;;
58528;SDS011;44322;52.968;5.816;2023-02-28T13:49:28;4.82;;;4.07;;
58528;SDS011;44322;52.968;5.816;2023-02-28T14:08:42;4.00;;;3.60;;
58528;SDS011;44322;52.968;5.816;2023-02-28T14:11:23;4.95;;;3.95;;
58528;SDS011;44322;52.968;5.816;2023-02-28T14:13:52;4.53;;;3.97;;
58528;SDS011;44322;52.968;5.816;2023-02-28T14:16:23;4.68;;;3.70;;
58528;SDS011;44322;52.968;5.816;2023-02-28T14:18:58;5.20;;;3.92;;
58528;SDS011;44322;52.968;5.816;2023-02-28T14:21:27;6.35;;;3.88;;
58528;SDS011;44322;52.968;5.816;2023-02-28T14:55:43;4.93;;;4.03;;
58528;SDS011;44322;52.968;5.816;2023-02-28T15:33:24;10.25;;;4.60;;
58528;SDS011;44322;52.968;5.816;2023-02-28T15:38:40;5.03;;;4.47;;
58528;SDS011;44322;52.968;5.816;2023-02-28T15:41:20;6.22;;;5.07;;
58528;SDS011;44322;52.968;5.816;2023-02-28T15:44:14;5.77;;;4.93;;
58528;SDS011;44322;52.968;5.816;2023-02-28T15:46:56;6.60;;;4.70;;
58528;SDS011;44322;52.968;5.816;2023-02-28T15:49:51;5.15;;;4.65;;
58528;SDS011;44322;52.968;5.816;2023-02-28T15:52:21;6.88;;;5.00;;
58528;SDS011;44322;52.968;5.816;2023-02-28T15:54:49;7.07;;;5.25;;
58528;SDS011;44322;52.968;5.816;2023-02-28T15:57:20;5.72;;;5.00;;
58528;SDS011;44322;52.968;5.816;2023-02-28T15:59:52;8.93;;;5.18;;
58528;SDS011;44322;52.968;5.816;2023-02-28T16:02:21;4.95;;;4.15;;
58528;SDS011;44322;52.968;5.816;2023-02-28T16:04:55;4.97;;;4.30;;
58528;SDS011;44322;52.968;5.816;2023-02-28T16:07:21;5.80;;;4.55;;
58528;SDS011;44322;52.968;5.816;2023-02-28T16:09:47;6.18;;;4.38;;
58528;SDS011;44322;52.968;5.816;2023-02-28T16:12:13;7.43;;;4.78;;
58528;SDS011;44322;52.968;5.816;2023-02-28T16:14:39;6.68;;;5.15;;
58528;SDS011;44322;52.968;5.816;2023-02-28T16:17:17;6.72;;;5.15;;
58528;SDS011;44322;52.968;5.816;2023-02-28T16:19:46;6.22;;;5.03;;
58528;SDS011;44322;52.968;5.816;2023-02-28T16:22:16;6.45;;;5.40;;
58528;SDS011;44322;52.968;5.816;2023-02-28T16:25:11;6.45;;;4.70;;
58528;SDS011;44322;52.968;5.816;2023-02-28T16:28:20;6.88;;;4.85;;
58528;SDS011;44322;52.968;5.816;2023-02-28T16:30:56;6.50;;;5.00;;
58528;SDS011;44322;52.968;5.816;2023-02-28T16:33:21;5.35;;;4.78;;
58528;SDS011;44322;52.968;5.816;2023-02-28T16:35:47;6.43;;;5.38;;
58528;SDS011;44322;52.968;5.816;2023-02-28T16:38:13;5.80;;;4.88;;
58528;SDS011;44322;52.968;5.816;2023-02-28T16:43:32;5.93;;;5.30;;
58528;SDS011;44322;52.968;5.816;2023-02-28T16:45:59;6.47;;;4.70;;
58528;SDS011;44322;52.968;5.816;2023-02-28T16:48:30;7.22;;;5.32;;
58528;SDS011;44322;52.968;5.816;2023-02-28T16:50:56;8.07;;;5.57;;
58528;SDS011;44322;52.968;5.816;2023-02-28T16:53:22;5.03;;;4.13;;
58528;SDS011;44322;52.968;5.816;2023-02-28T16:55:48;7.53;;;5.10;;
58528;SDS011;44322;52.968;5.816;2023-02-28T16:58:15;7.03;;;5.35;;
58528;SDS011;44322;52.968;5.816;2023-02-28T17:00:42;7.18;;;5.53;;
58528;SDS011;44322;52.968;5.816;2023-02-28T17:03:23;7.85;;;5.75;;
58528;SDS011;44322;52.968;5.816;2023-02-28T17:05:50;7.18;;;5.68;;
58528;SDS011;44322;52.968;5.816;2023-02-28T17:08:16;7.28;;;5.72;;
58528;SDS011;44322;52.968;5.816;2023-02-28T17:10:42;6.93;;;5.68;;
58528;SDS011;44322;52.968;5.816;2023-02-28T17:13:08;8.63;;;5.38;;
58528;SDS011;44322;52.968;5.816;2023-02-28T17:15:34;7.65;;;5.85;;
58528;SDS011;44322;52.968;5.816;2023-02-28T17:18:01;7.57;;;5.18;;
58528;SDS011;44322;52.968;5.816;2023-02-28T17:20:27;7.43;;;6.25;;
58528;SDS011;44322;52.968;5.816;2023-02-28T17:22:53;6.68;;;5.45;;
58528;SDS011;44322;52.968;5.816;2023-02-28T17:25:19;8.20;;;5.72;;
58528;SDS011;44322;52.968;5.816;2023-02-28T17:27:45;8.52;;;6.13;;
58528;SDS011;44322;52.968;5.816;2023-02-28T17:30:21;8.00;;;6.25;;
58528;SDS011;44322;52.968;5.816;2023-02-28T17:32:48;7.13;;;5.18;;
58528;SDS011;44322;52.968;5.816;2023-02-28T17:35:14;9.38;;;6.60;;
58528;SDS011;44322;52.968;5.816;2023-02-28T17:37:41;8.20;;;7.03;;
58528;SDS011;44322;52.968;5.816;2023-02-28T17:40:19;8.25;;;6.65;;
58528;SDS011;44322;52.968;5.816;2023-02-28T17:42:45;11.05;;;7.05;;
58528;SDS011;44322;52.968;5.816;2023-02-28T17:45:12;10.43;;;8.15;;
58528;SDS011;44322;52.968;5.816;2023-02-28T17:47:39;17.00;;;11.23;;
58528;SDS011;44322;52.968;5.816;2023-02-28T17:50:05;16.77;;;10.02;;
58528;SDS011;44322;52.968;5.816;2023-02-28T17:52:31;10.45;;;7.65;;
58528;SDS011;44322;52.968;5.816;2023-02-28T17:55:02;10.57;;;7.95;;
58528;SDS011;44322;52.968;5.816;2023-02-28T17:57:29;12.45;;;8.68;;
58528;SDS011;44322;52.968;5.816;2023-02-28T17:59:55;10.32;;;7.90;;
58528;SDS011;44322;52.968;5.816;2023-02-28T18:02:22;12.88;;;9.88;;
58528;SDS011;44322;52.968;5.816;2023-02-28T18:04:48;14.80;;;10.90;;
58528;SDS011;44322;52.968;5.816;2023-02-28T18:07:13;12.55;;;9.18;;
58528;SDS011;44322;52.968;5.816;2023-02-28T18:09:39;10.45;;;8.00;;
58528;SDS011;44322;52.968;5.816;2023-02-28T18:12:05;12.85;;;8.77;;
58528;SDS011;44322;52.968;5.816;2023-02-28T18:14:31;9.57;;;7.63;;
58528;SDS011;44322;52.968;5.816;2023-02-28T18:16:57;10.05;;;7.50;;
58528;SDS011;44322;52.968;5.816;2023-02-28T18:19:23;11.68;;;7.63;;
58528;SDS011;44322;52.968;5.816;2023-02-28T18:21:50;9.90;;;7.22;;
58528;SDS011;44322;52.968;5.816;2023-02-28T18:24:17;9.60;;;7.80;;
58528;SDS011;44322;52.968;5.816;2023-02-28T18:26:45;9.88;;;7.75;;
58528;SDS011;44322;52.968;5.816;2023-02-28T18:29:18;10.07;;;7.05;;
58528;SDS011;44322;52.968;5.816;2023-02-28T18:31:48;8.82;;;6.35;;
58528;SDS011;44322;52.968;5.816;2023-02-28T18:34:26;9.65;;;7.93;;
58528;SDS011;44322;52.968;5.816;2023-02-28T18:36:52;10.40;;;7.53;;
58528;SDS011;44322;52.968;5.816;2023-02-28T18:39:21;9.43;;;8.15;;
58528;SDS011;44322;52.968;5.816;2023-02-28T18:41:47;11.25;;;8.40;;
58528;SDS011;44322;52.968;5.816;2023-02-28T18:44:13;10.27;;;7.90;;
58528;SDS011;44322;52.968;5.816;2023-02-28T18:46:39;9.07;;;7.28;;
58528;SDS011;44322;52.968;5.816;2023-02-28T18:49:05;12.93;;;9.32;;
58528;SDS011;44322;52.968;5.816;2023-02-28T18:51:31;32.85;;;18.73;;
58528;SDS011;44322;52.968;5.816;2023-02-28T18:54:05;31.10;;;17.88;;
58528;SDS011;44322;52.968;5.816;2023-02-28T18:56:31;22.83;;;14.38;;
58528;SDS011;44322;52.968;5.816;2023-02-28T18:58:57;14.60;;;9.43;;
58528;SDS011;44322;52.968;5.816;2023-02-28T19:03:50;10.45;;;7.85;;
58528;SDS011;44322;52.968;5.816;2023-02-28T19:06:17;9.30;;;7.70;;
58528;SDS011;44322;52.968;5.816;2023-02-28T19:08:43;13.60;;;8.63;;
58528;SDS011;44322;52.968;5.816;2023-02-28T19:11:09;10.95;;;7.40;;
58528;SDS011;44322;52.968;5.816;2023-02-28T19:13:39;11.65;;;8.85;;
58528;SDS011;44322;52.968;5.816;2023-02-28T19:16:10;10.68;;;8.90;;
58528;SDS011;44322;52.968;5.816;2023-02-28T19:18:37;13.67;;;8.80;;
58528;SDS011;44322;52.968;5.816;2023-02-28T19:21:10;11.55;;;9.20;;
58528;SDS011;44322;52.968;5.816;2023-02-28T19:23:38;12.95;;;9.60;;
58528;SDS011;44322;52.968;5.816;2023-02-28T19:26:08;10.85;;;7.72;;
58528;SDS011;44322;52.968;5.816;2023-02-28T19:28:34;13.95;;;9.93;;
58528;SDS011;44322;52.968;5.816;2023-02-28T19:31:00;14.85;;;10.05;;
58528;SDS011;44322;52.968;5.816;2023-02-28T19:33:26;10.85;;;8.77;;
58528;SDS011;44322;52.968;5.816;2023-02-28T19:35:52;12.57;;;9.35;;
58528;SDS011;44322;52.968;5.816;2023-02-28T19:38:18;14.18;;;9.43;;
58528;SDS011;44322;52.968;5.816;2023-02-28T19:40:43;11.52;;;8.25;;
58528;SDS011;44322;52.968;5.816;2023-02-28T19:43:09;10.45;;;8.82;;
58528;SDS011;44322;52.968;5.816;2023-02-28T19:45:35;12.98;;;9.88;;
58528;SDS011;44322;52.968;5.816;2023-02-28T19:48:02;14.68;;;10.05;;
58528;SDS011;44322;52.968;5.816;2023-02-28T19:50:29;10.88;;;8.45;;
58528;SDS011;44322;52.968;5.816;2023-02-28T19:52:55;15.73;;;11.07;;
58528;SDS011;44322;52.968;5.816;2023-02-28T19:55:20;15.45;;;11.65;;
58528;SDS011;44322;52.968;5.816;2023-02-28T19:57:46;15.02;;;10.98;;
58528;SDS011;44322;52.968;5.816;2023-02-28T20:00:13;13.55;;;10.25;;
58528;SDS011;44322;52.968;5.816;2023-02-28T20:02:40;14.80;;;11.50;;
58528;SDS011;44322;52.968;5.816;2023-02-28T20:05:06;17.48;;;12.63;;
58528;SDS011;44322;52.968;5.816;2023-02-28T20:07:33;17.50;;;12.10;;
58528;SDS011;44322;52.968;5.816;2023-02-28T20:09:59;21.17;;;14.57;;
58528;SDS011;44322;52.968;5.816;2023-02-28T20:12:24;16.88;;;11.90;;
58528;SDS011;44322;52.968;5.816;2023-02-28T20:14:51;20.25;;;12.35;;
58528;SDS011;44322;52.968;5.816;2023-02-28T20:17:20;20.80;;;13.80;;
58528;SDS011;44322;52.968;5.816;2023-02-28T20:19:46;18.02;;;13.45;;
58528;SDS011;44322;52.968;5.816;2023-02-28T20:22:11;18.35;;;13.20;;